createdAt,value
2022-08-07T00:00:32.511Z,19.77
2022-08-07T00:02:59.967Z,19.76
2022-08-07T00:05:29.703Z,19.78
2022-08-07T00:08:00.218Z,19.80
2022-08-07T00:10:31.034Z,19.82
2022-08-07T00:13:02.307Z,19.84
2022-08-07T00:15:46.337Z,19.85
2022-08-07T00:18:19.429Z,19.87
2022-08-07T00:20:49.421Z,19.87
2022-08-07T00:23:17.033Z,19.87
2022-08-07T00:25:45.894Z,19.87
2022-08-07T00:28:33.481Z,19.88
2022-08-07T00:31:06.249Z,19.89
2022-08-07T00:33:40.314Z,19.89
2022-08-07T00:36:08.434Z,19.90
2022-08-07T00:38:36.774Z,19.89
2022-08-07T00:41:09.986Z,19.88
2022-08-07T00:44:01.650Z,19.87
2022-08-07T00:46:30.960Z,19.86
2022-08-07T00:49:02.680Z,19.84
2022-08-07T00:51:56.723Z,19.82
2022-08-07T00:54:19.593Z,19.81
2022-08-07T00:56:49.921Z,19.81
2022-08-07T00:59:17.582Z,19.80
2022-08-07T01:01:49.331Z,19.81
2022-08-07T01:04:25.099Z,19.78
2022-08-07T01:06:52.284Z,19.77
2022-08-07T01:10:04.254Z,19.78
2022-08-07T01:12:28.639Z,19.74
2022-08-07T01:15:01.622Z,19.70
2022-08-07T01:17:32.880Z,19.67
2022-08-07T01:20:04.236Z,19.64
2022-08-07T01:22:32.904Z,19.59
2022-08-07T01:25:01.012Z,19.58
2022-08-07T01:27:32.649Z,19.56
2022-08-07T01:30:01.633Z,19.56
2022-08-07T01:32:31.044Z,19.56
2022-08-07T01:35:00.131Z,19.54
2022-08-07T01:37:28.198Z,19.51
2022-08-07T01:40:02.251Z,19.51
2022-08-07T01:42:37.676Z,19.52
2022-08-07T01:45:09.893Z,19.53
2022-08-07T01:48:19.571Z,19.51
2022-08-07T01:50:32.084Z,19.53
2022-08-07T01:53:02.113Z,19.55
2022-08-07T01:55:44.369Z,19.53
2022-08-07T01:58:29.016Z,19.56
2022-08-07T02:01:10.307Z,19.56
2022-08-07T02:03:56.549Z,19.53
2022-08-07T02:06:31.344Z,19.51
2022-08-07T02:09:04.510Z,19.48
2022-08-07T02:12:04.193Z,19.48
2022-08-07T02:14:35.492Z,19.49
2022-08-07T02:17:06.182Z,19.51
2022-08-07T02:20:04.321Z,19.55
2022-08-07T02:22:25.835Z,19.52
2022-08-07T02:24:55.889Z,19.51
2022-08-07T02:27:26.351Z,19.56
2022-08-07T02:30:03.668Z,19.53
2022-08-07T02:32:39.557Z,19.52
2022-08-07T02:36:28.291Z,19.50
2022-08-07T02:38:16.046Z,19.53
2022-08-07T02:40:44.533Z,19.52
2022-08-07T02:43:16.436Z,19.52
2022-08-07T02:45:59.297Z,19.50
2022-08-07T02:48:30.812Z,19.44
2022-08-07T02:51:06.737Z,19.43
2022-08-07T02:53:38.890Z,19.43
2022-08-07T02:56:21.110Z,19.45
2022-08-07T02:58:53.949Z,19.44
2022-08-07T03:01:35.509Z,19.40
2022-08-07T03:04:09.314Z,19.39
2022-08-07T03:06:40.340Z,19.37
2022-08-07T03:09:11.201Z,19.39
2022-08-07T03:11:51.690Z,19.36
2022-08-07T03:14:23.919Z,19.36
2022-08-07T03:16:52.608Z,19.35
2022-08-07T03:19:20.858Z,19.38
2022-08-07T03:21:50.930Z,19.35
2022-08-07T03:24:26.818Z,19.28
2022-08-07T03:27:00.181Z,19.25
2022-08-07T03:29:38.493Z,19.25
2022-08-07T03:32:13.496Z,19.23
2022-08-07T03:34:47.283Z,19.24
2022-08-07T03:37:32.783Z,19.19
2022-08-07T03:40:14.807Z,19.13
2022-08-07T03:42:44.490Z,19.05
2022-08-07T03:45:30.359Z,19.04
2022-08-07T03:48:02.326Z,18.99
2022-08-07T03:50:30.991Z,18.95
2022-08-07T03:53:03.323Z,18.91
2022-08-07T03:55:58.282Z,18.91
2022-08-07T03:58:34.960Z,18.86
2022-08-07T04:01:11.704Z,18.82
2022-08-07T04:03:53.625Z,18.78
2022-08-07T04:06:37.383Z,18.77
2022-08-07T04:09:15.644Z,18.75
2022-08-07T04:12:27.029Z,18.70
2022-08-07T04:14:37.485Z,18.70
2022-08-07T04:17:21.212Z,18.73
2022-08-07T04:19:54.605Z,18.73
2022-08-07T04:22:29.125Z,18.75
2022-08-07T04:25:01.093Z,18.77
2022-08-07T04:27:35.444Z,18.78
2022-08-07T04:30:11.671Z,18.77
2022-08-07T04:32:58.119Z,18.78
2022-08-07T04:35:27.335Z,18.74
2022-08-07T04:38:05.414Z,18.76
2022-08-07T04:40:51.479Z,18.80
2022-08-07T04:44:14.425Z,18.80
2022-08-07T04:46:25.920Z,18.79
2022-08-07T04:49:17.564Z,18.78
2022-08-07T04:51:56.795Z,18.78
2022-08-07T04:54:31.594Z,18.80
2022-08-07T04:58:15.885Z,18.80
2022-08-07T05:00:09.733Z,18.75
2022-08-07T05:02:48.596Z,18.75
2022-08-07T05:05:52.111Z,18.77
2022-08-07T05:08:18.202Z,18.77
2022-08-07T05:11:10.956Z,18.81
2022-08-07T05:14:54.219Z,18.84
2022-08-07T05:16:43.980Z,18.79
2022-08-07T05:19:17.988Z,18.81
2022-08-07T05:22:00.064Z,18.81
2022-08-07T05:24:40.454Z,18.77
2022-08-07T05:27:18.406Z,18.79
2022-08-07T05:29:59.359Z,18.82
2022-08-07T05:32:26.537Z,18.84
2022-08-07T05:34:54.347Z,18.84
2022-08-07T05:37:25.066Z,18.85
2022-08-07T05:40:05.989Z,18.85
2022-08-07T05:42:55.822Z,18.85
2022-08-07T05:45:46.558Z,18.89
2022-08-07T05:48:13.892Z,18.92
2022-08-07T05:50:44.905Z,18.91
2022-08-07T05:54:09.458Z,18.91
2022-08-07T05:56:05.833Z,18.89
2022-08-07T05:58:37.702Z,18.93
2022-08-07T06:01:11.622Z,18.99
2022-08-07T06:03:53.619Z,19.03
2022-08-07T06:06:29.445Z,19.00
2022-08-07T06:09:04.493Z,19.02
2022-08-07T06:11:35.638Z,18.99
2022-08-07T06:14:11.677Z,19.03
2022-08-07T06:16:50.700Z,19.07
2022-08-07T06:19:51.905Z,19.14
2022-08-07T06:22:23.855Z,19.16
2022-08-07T06:25:04.854Z,19.18
2022-08-07T06:27:59.718Z,19.26
2022-08-07T06:30:32.021Z,19.32
2022-08-07T06:33:15.989Z,19.32
2022-08-07T06:36:06.256Z,19.35
2022-08-07T06:38:35.099Z,19.43
2022-08-07T06:41:13.075Z,19.53
2022-08-07T06:43:46.087Z,19.59
2022-08-07T06:46:31.045Z,19.68
2022-08-07T06:48:59.999Z,19.69
2022-08-07T06:51:33.682Z,19.74
2022-08-07T06:55:28.261Z,19.77
2022-08-07T06:56:57.512Z,19.84
2022-08-07T07:00:12.602Z,19.90
2022-08-07T07:02:48.168Z,19.96
2022-08-07T07:05:13.212Z,20.01
2022-08-07T07:08:06.952Z,20.09
2022-08-07T07:10:36.950Z,20.14
2022-08-07T07:13:11.065Z,20.18
2022-08-07T07:15:43.179Z,20.17
2022-08-07T07:18:15.391Z,20.21
2022-08-07T07:21:19.720Z,20.23
2022-08-07T07:24:09.133Z,20.28
2022-08-07T07:26:37.921Z,20.35
2022-08-07T07:29:40.246Z,20.39
2022-08-07T07:32:02.393Z,20.41
2022-08-07T07:34:32.130Z,20.49
2022-08-07T07:37:05.462Z,20.56
2022-08-07T07:39:55.766Z,20.57
2022-08-07T07:42:33.338Z,20.57
2022-08-07T07:45:02.820Z,20.49
2022-08-07T07:47:42.918Z,20.53
2022-08-07T07:50:36.370Z,20.57
2022-08-07T07:53:06.173Z,20.68
2022-08-07T07:55:54.823Z,20.83
2022-08-07T07:58:29.250Z,20.88
2022-08-07T08:00:58.587Z,20.90
2022-08-07T08:04:06.333Z,20.89
2022-08-07T08:06:17.448Z,20.88
2022-08-07T08:08:44.977Z,20.85
2022-08-07T08:11:18.179Z,20.83
2022-08-07T08:14:02.975Z,20.88
2022-08-07T08:18:36.432Z,20.95
2022-08-07T08:20:18.780Z,21.02
2022-08-07T08:22:33.642Z,21.06
2022-08-07T08:25:41.910Z,21.11
2022-08-07T08:28:23.752Z,21.11
2022-08-07T08:31:07.374Z,21.11
2022-08-07T08:33:50.025Z,21.15
2022-08-07T08:36:29.769Z,21.16
2022-08-07T08:39:02.060Z,21.22
2022-08-07T08:41:59.197Z,21.30
2022-08-07T08:44:29.293Z,21.33
2022-08-07T08:47:05.131Z,21.36
2022-08-07T08:50:04.491Z,21.43
2022-08-07T08:52:36.005Z,21.42
2022-08-07T08:55:08.928Z,21.38
2022-08-07T08:57:46.842Z,21.43
2022-08-07T09:00:15.250Z,21.48
2022-08-07T09:02:52.328Z,21.47
2022-08-07T09:05:37.761Z,21.42
2022-08-07T09:08:30.432Z,21.42
2022-08-07T09:11:11.134Z,21.41
2022-08-07T09:13:54.664Z,21.38
2022-08-07T09:16:30.455Z,21.46
2022-08-07T09:19:53.283Z,21.57
2022-08-07T09:22:22.959Z,21.59
2022-08-07T09:25:12.028Z,21.62
2022-08-07T09:27:59.911Z,21.60
2022-08-07T09:30:37.227Z,21.66
2022-08-07T09:33:16.433Z,21.63
2022-08-07T09:36:03.325Z,21.59
2022-08-07T09:38:42.461Z,21.55
2022-08-07T09:41:28.185Z,21.57
2022-08-07T09:44:32.893Z,21.63
2022-08-07T09:47:51.948Z,21.66
2022-08-07T09:50:19.111Z,21.69
2022-08-07T09:52:53.923Z,21.77
2022-08-07T09:56:04.133Z,21.84
2022-08-07T09:58:32.958Z,21.86
2022-08-07T10:01:50.997Z,21.85
2022-08-07T10:04:33.022Z,21.88
2022-08-07T10:07:52.379Z,22.02
2022-08-07T10:14:00.646Z,22.00
2022-08-07T10:16:55.969Z,22.01
2022-08-07T10:19:46.555Z,21.99
2022-08-07T10:22:33.711Z,22.04
2022-08-07T10:25:14.449Z,22.11
2022-08-07T10:28:22.129Z,22.18
2022-08-07T10:31:02.373Z,22.18
2022-08-07T10:34:14.615Z,22.20
2022-08-07T10:36:48.345Z,22.19
2022-08-07T10:39:42.114Z,22.25
2022-08-07T10:42:36.509Z,22.32
2022-08-07T10:45:17.387Z,22.41
2022-08-07T10:47:55.816Z,22.44
2022-08-07T10:50:32.856Z,22.41
2022-08-07T10:53:09.755Z,22.42
2022-08-07T10:55:44.083Z,22.44
2022-08-07T10:58:32.110Z,22.42
2022-08-07T11:01:17.171Z,22.38
2022-08-07T11:04:05.347Z,22.37
2022-08-07T11:06:51.155Z,22.35
2022-08-07T11:10:09.374Z,22.34
2022-08-07T11:12:31.746Z,22.32
2022-08-07T11:15:03.853Z,22.31
2022-08-07T11:17:49.869Z,22.33
2022-08-07T11:20:24.414Z,22.26
2022-08-07T11:22:59.633Z,22.23
2022-08-07T11:25:36.224Z,22.18
2022-08-07T11:28:17.547Z,22.16
2022-08-07T11:30:52.696Z,22.14
2022-08-07T11:33:55.424Z,22.13
2022-08-07T11:36:36.917Z,22.22
2022-08-07T11:39:19.380Z,22.34
2022-08-07T11:42:02.393Z,22.48
2022-08-07T11:44:52.677Z,22.63
2022-08-07T11:47:56.012Z,22.63
2022-08-07T11:50:44.360Z,22.76
2022-08-07T11:53:35.465Z,22.93
2022-08-07T11:56:27.044Z,23.03
2022-08-07T11:59:03.902Z,23.04
2022-08-07T12:01:59.135Z,23.08
2022-08-07T12:04:53.043Z,23.17
2022-08-07T12:07:27.441Z,23.12
2022-08-07T12:10:01.979Z,23.18
2022-08-07T12:12:37.352Z,23.33
2022-08-07T12:15:17.297Z,23.38
2022-08-07T12:18:08.070Z,23.36
2022-08-07T12:20:46.338Z,23.18
2022-08-07T12:24:05.450Z,23.16
2022-08-07T12:26:35.490Z,23.22
2022-08-07T12:29:12.016Z,23.26
2022-08-07T12:32:02.608Z,23.18
2022-08-07T12:34:34.661Z,23.14
2022-08-07T12:37:03.973Z,23.16
2022-08-07T12:39:44.222Z,23.13
2022-08-07T12:42:27.889Z,23.13
2022-08-07T12:44:57.858Z,23.11
2022-08-07T12:47:33.159Z,23.11
2022-08-07T12:50:38.631Z,23.15
2022-08-07T12:53:18.032Z,23.20
2022-08-07T12:56:02.528Z,23.18
2022-08-07T12:58:37.386Z,23.14
2022-08-07T13:01:16.917Z,23.14
2022-08-07T13:04:04.675Z,23.25
2022-08-07T13:06:54.346Z,23.37
2022-08-07T13:10:36.722Z,23.52
2022-08-07T13:13:01.189Z,23.66
2022-08-07T13:15:36.187Z,23.69
2022-08-07T13:18:26.128Z,23.64
2022-08-07T13:21:02.833Z,23.57
2022-08-07T13:24:01.654Z,23.47
2022-08-07T13:26:33.971Z,23.46
2022-08-07T13:29:10.957Z,23.47
2022-08-07T13:31:54.839Z,23.40
2022-08-07T13:34:35.987Z,23.43
2022-08-07T13:37:11.030Z,23.42
2022-08-07T13:40:35.587Z,23.41
2022-08-07T13:42:59.631Z,23.37
2022-08-07T13:46:16.407Z,23.38
2022-08-07T13:48:31.706Z,23.39
2022-08-07T13:51:27.569Z,23.42
2022-08-07T13:53:59.499Z,23.39
2022-08-07T13:56:35.848Z,23.32
2022-08-07T13:59:12.335Z,23.32
2022-08-07T14:01:51.505Z,23.31
2022-08-07T14:04:47.524Z,23.32
2022-08-07T14:07:19.537Z,23.30
2022-08-07T14:10:12.499Z,23.28
2022-08-07T14:12:54.023Z,23.17
2022-08-07T14:15:31.946Z,23.10
2022-08-07T14:18:27.101Z,23.09
2022-08-07T14:20:59.367Z,23.04
2022-08-07T14:24:00.493Z,23.05
2022-08-07T14:26:30.006Z,23.07
2022-08-07T14:29:05.986Z,23.10
2022-08-07T14:31:43.378Z,23.11
2022-08-07T14:34:29.685Z,23.13
2022-08-07T14:36:59.411Z,23.22
2022-08-07T14:40:17.169Z,23.25
2022-08-07T14:42:25.022Z,23.28
2022-08-07T14:44:59.829Z,23.27
2022-08-07T14:47:45.669Z,23.29
2022-08-07T14:50:19.202Z,23.20
2022-08-07T14:52:47.893Z,23.14
2022-08-07T14:55:18.405Z,23.12
2022-08-07T14:57:58.424Z,23.08
2022-08-07T15:03:19.635Z,23.07
2022-08-07T15:05:54.130Z,23.09
2022-08-07T15:11:15.695Z,23.13
2022-08-07T15:14:10.153Z,23.13
2022-08-07T15:16:40.660Z,23.13
2022-08-07T15:20:30.192Z,23.17
2022-08-07T15:22:22.107Z,23.18
2022-08-07T15:25:14.460Z,23.17
2022-08-07T15:28:14.104Z,23.14
2022-08-07T15:30:31.480Z,23.08
2022-08-07T15:33:04.038Z,23.10
2022-08-07T15:38:30.787Z,23.25
2022-08-07T15:42:42.406Z,23.36
2022-08-07T15:44:00.485Z,23.44
2022-08-07T15:46:39.224Z,23.47
2022-08-07T15:49:18.129Z,23.44
2022-08-07T15:54:33.921Z,23.40
2022-08-07T15:57:03.471Z,23.41
2022-08-07T15:59:39.774Z,23.45
2022-08-07T16:02:23.511Z,23.49
2022-08-07T16:04:58.429Z,23.52
2022-08-07T16:08:29.154Z,23.51
2022-08-07T16:10:22.918Z,23.43
2022-08-07T16:13:17.816Z,23.42
2022-08-07T16:16:06.863Z,23.42
2022-08-07T16:19:09.514Z,23.40
2022-08-07T16:22:05.569Z,23.38
2022-08-07T16:24:38.584Z,23.39
2022-08-07T16:27:40.737Z,23.42
2022-08-07T16:30:30.723Z,23.45
2022-08-07T16:34:03.398Z,23.49
2022-08-07T16:36:20.068Z,23.53
2022-08-07T16:39:03.474Z,23.54
2022-08-07T16:41:54.049Z,23.60
2022-08-07T16:45:15.596Z,23.64
2022-08-07T16:48:28.706Z,23.57
2022-08-07T16:51:53.980Z,23.55
2022-08-07T16:54:33.005Z,23.51
2022-08-07T16:57:15.254Z,23.45
2022-08-07T16:59:51.972Z,23.44
2022-08-07T17:02:53.004Z,23.45
2022-08-07T17:06:02.154Z,23.42
2022-08-07T17:09:09.461Z,23.38
2022-08-07T17:12:02.045Z,23.36
2022-08-07T17:14:32.258Z,23.31
2022-08-07T17:17:09.718Z,23.28
2022-08-07T17:20:02.310Z,23.25
2022-08-07T17:22:38.143Z,23.23
2022-08-07T17:25:15.107Z,23.25
2022-08-07T17:27:57.618Z,23.28
2022-08-07T17:30:30.080Z,23.28
2022-08-07T17:34:09.179Z,23.32
2022-08-07T17:36:02.111Z,23.33
2022-08-07T17:38:35.373Z,23.38
2022-08-07T17:41:12.490Z,23.44
2022-08-07T17:44:06.622Z,23.44
2022-08-07T17:46:47.125Z,23.44
2022-08-07T17:49:24.158Z,23.43
2022-08-07T17:52:00.530Z,23.43
2022-08-07T17:54:53.878Z,23.43
2022-08-07T17:57:44.169Z,23.42
2022-08-07T18:00:32.698Z,23.41
2022-08-07T18:03:11.098Z,23.41
2022-08-07T18:06:03.315Z,23.39
2022-08-07T18:09:01.439Z,23.38
2022-08-07T18:12:17.624Z,23.37
2022-08-07T18:14:31.296Z,23.36
2022-08-07T18:17:05.313Z,23.35
2022-08-07T18:21:04.224Z,23.30
2022-08-07T18:22:33.977Z,23.27
2022-08-07T18:25:19.023Z,23.24
2022-08-07T18:28:13.652Z,23.23
2022-08-07T18:31:07.489Z,23.21
2022-08-07T18:34:35.794Z,23.21
2022-08-07T18:37:09.223Z,23.19
2022-08-07T18:40:06.408Z,23.15
2022-08-07T18:42:44.786Z,23.10
2022-08-07T18:45:44.994Z,23.05
2022-08-07T18:48:05.437Z,23.06
2022-08-07T18:51:05.351Z,23.08
2022-08-07T18:53:48.815Z,23.04
2022-08-07T18:56:37.838Z,23.02
2022-08-07T18:59:47.754Z,23.01
2022-08-07T19:02:32.545Z,22.99
2022-08-07T19:05:15.224Z,22.98
2022-08-07T19:07:57.047Z,22.98
2022-08-07T19:10:31.581Z,22.99
2022-08-07T19:13:11.725Z,22.96
2022-08-07T19:16:04.215Z,22.92
2022-08-07T19:18:45.154Z,22.89
2022-08-07T19:21:51.058Z,22.87
2022-08-07T19:24:30.798Z,22.85
2022-08-07T19:28:57.777Z,22.83
2022-08-07T19:31:05.965Z,22.81
2022-08-07T19:32:46.925Z,22.79
2022-08-07T19:35:22.579Z,22.78
2022-08-07T19:37:58.425Z,22.79
2022-08-07T19:40:30.769Z,22.76
2022-08-07T19:43:01.139Z,22.73
2022-08-07T19:46:06.183Z,22.74
2022-08-07T19:48:25.475Z,22.70
2022-08-07T19:50:54.495Z,22.69
2022-08-07T19:54:35.068Z,22.68
2022-08-07T19:58:01.301Z,22.62
2022-08-07T19:59:08.829Z,22.57
2022-08-07T20:01:57.420Z,22.58
2022-08-07T20:04:30.996Z,22.58
2022-08-07T20:06:59.275Z,22.57
2022-08-07T20:10:36.108Z,22.56
2022-08-07T20:12:31.916Z,22.51
2022-08-07T20:15:09.757Z,22.47
2022-08-07T20:18:01.485Z,22.43
2022-08-07T20:20:32.704Z,22.39
2022-08-07T20:23:22.908Z,22.39
2022-08-07T20:25:53.190Z,22.36
2022-08-07T20:28:29.514Z,22.32
2022-08-07T20:30:58.563Z,22.32
2022-08-07T20:33:37.658Z,22.31
2022-08-07T20:36:08.785Z,22.28
2022-08-07T20:38:59.475Z,22.24
2022-08-07T20:41:26.884Z,22.13
2022-08-07T20:43:57.459Z,22.08
2022-08-07T20:46:44.161Z,22.03
2022-08-07T20:49:58.976Z,21.97
2022-08-07T20:52:09.368Z,21.89
2022-08-07T20:54:53.085Z,21.78
2022-08-07T20:57:24.314Z,21.68
2022-08-07T21:00:04.926Z,21.57
2022-08-07T21:02:57.774Z,21.45
2022-08-07T21:05:50.604Z,21.36
2022-08-07T21:08:33.195Z,21.33
2022-08-07T21:11:12.368Z,21.32
2022-08-07T21:14:16.569Z,21.30
2022-08-07T21:16:46.724Z,21.25
2022-08-07T21:19:32.183Z,21.23
2022-08-07T21:22:16.261Z,21.20
2022-08-07T21:24:55.308Z,21.22
2022-08-07T21:27:40.164Z,21.20
2022-08-07T21:30:16.673Z,21.15
2022-08-07T21:32:53.588Z,21.12
2022-08-07T21:35:34.704Z,21.07
2022-08-07T21:38:27.574Z,21.04
2022-08-07T21:41:01.806Z,20.99
2022-08-07T21:43:47.206Z,20.97
2022-08-07T21:46:32.249Z,20.92
2022-08-07T21:49:15.005Z,20.90
2022-08-07T21:51:57.701Z,20.86
2022-08-07T21:54:38.086Z,20.81
2022-08-07T21:57:39.738Z,20.79
2022-08-07T22:00:22.360Z,20.76
2022-08-07T22:02:59.213Z,20.76
2022-08-07T22:05:45.766Z,20.74
2022-08-07T22:08:19.881Z,20.69
2022-08-07T22:10:53.636Z,20.68
2022-08-07T22:13:24.217Z,20.66
2022-08-07T22:16:41.928Z,20.61
2022-08-07T22:19:20.104Z,20.56
2022-08-07T22:22:10.867Z,20.55
2022-08-07T22:24:55.456Z,20.54
2022-08-07T22:27:34.135Z,20.49
2022-08-07T22:30:22.222Z,20.42
2022-08-07T22:33:02.323Z,20.41
2022-08-07T22:35:39.835Z,20.41
2022-08-07T22:38:24.163Z,20.37
2022-08-07T22:41:00.005Z,20.30
2022-08-07T22:43:36.164Z,20.27
2022-08-07T22:47:02.421Z,20.25
2022-08-07T22:49:39.616Z,20.21
2022-08-07T22:52:40.074Z,20.16
2022-08-07T22:55:34.005Z,20.08
2022-08-07T22:58:24.962Z,20.04
2022-08-07T23:01:10.980Z,20.00
2022-08-07T23:03:58.340Z,19.93
2022-08-07T23:06:38.932Z,19.89
2022-08-07T23:10:05.360Z,19.85
2022-08-07T23:12:21.154Z,19.76
2022-08-07T23:15:27.045Z,19.71
2022-08-07T23:18:19.241Z,19.65
2022-08-07T23:21:12.028Z,19.61
2022-08-07T23:24:18.761Z,19.53
2022-08-07T23:27:01.497Z,19.44
2022-08-07T23:30:38.896Z,19.40
2022-08-07T23:34:35.553Z,19.34
2022-08-07T23:36:17.438Z,19.29
2022-08-07T23:39:08.383Z,19.25
2022-08-07T23:42:04.116Z,19.26
2022-08-07T23:44:53.758Z,19.18
2022-08-07T23:47:46.764Z,19.12
2022-08-07T23:50:33.476Z,19.12
2022-08-07T23:53:11.773Z,19.13
2022-08-07T23:55:53.839Z,19.13
2022-08-07T23:58:31.399Z,19.11
